sensor_id;sensor_type;location;lat;lon;timestamp;temperature;humidity
8527;DHT22;4301;48.362;8.478;2023-04-06T00:00:33;-1.60;1.00
8527;DHT22;4301;48.362;8.478;2023-04-06T00:03:01;-1.60;1.00
8527;DHT22;4301;48.362;8.478;2023-04-06T00:05:28;-1.60;1.00
8527;DHT22;4301;48.362;8.478;2023-04-06T00:07:57;-1.70;1.00
8527;DHT22;4301;48.362;8.478;2023-04-06T00:10:24;-1.70;1.00
8527;DHT22;4301;48.362;8.478;2023-04-06T00:12:52;-1.80;1.00
8527;DHT22;4301;48.362;8.478;2023-04-06T00:15:19;-1.80;1.00
8527;DHT22;4301;48.362;8.478;2023-04-06T00:17:46;-1.80;1.00
8527;DHT22;4301;48.362;8.478;2023-04-06T00:20:15;-1.80;1.00
8527;DHT22;4301;48.362;8.478;2023-04-06T00:22:42;-1.90;1.00
8527;DHT22;4301;48.362;8.478;2023-04-06T00:25:10;-1.90;1.00
8527;DHT22;4301;48.362;8.478;2023-04-06T00:27:37;-1.90;1.00
8527;DHT22;4301;48.362;8.478;2023-04-06T00:30:05;-1.90;1.00
8527;DHT22;4301;48.362;8.478;2023-04-06T00:32:32;-2.00;1.00
8527;DHT22;4301;48.362;8.478;2023-04-06T00:34:59;-2.00;1.00
8527;DHT22;4301;48.362;8.478;2023-04-06T00:37:27;-2.10;1.00
8527;DHT22;4301;48.362;8.478;2023-04-06T00:39:54;-2.10;1.00
8527;DHT22;4301;48.362;8.478;2023-04-06T00:42:22;-2.10;1.00
8527;DHT22;4301;48.362;8.478;2023-04-06T00:44:52;-2.10;1.00
8527;DHT22;4301;48.362;8.478;2023-04-06T00:47:19;-2.20;1.00
8527;DHT22;4301;48.362;8.478;2023-04-06T00:49:47;-2.20;1.00
8527;DHT22;4301;48.362;8.478;2023-04-06T00:52:14;-2.20;1.00
8527;DHT22;4301;48.362;8.478;2023-04-06T00:54:43;-2.20;1.00
8527;DHT22;4301;48.362;8.478;2023-04-06T00:57:11;-2.30;1.00
8527;DHT22;4301;48.362;8.478;2023-04-06T00:59:38;-2.20;1.00
8527;DHT22;4301;48.362;8.478;2023-04-06T01:02:06;-2.20;1.00
8527;DHT22;4301;48.362;8.478;2023-04-06T01:04:33;-2.30;1.00
8527;DHT22;4301;48.362;8.478;2023-04-06T01:07:00;-2.30;1.00
8527;DHT22;4301;48.362;8.478;2023-04-06T01:09:27;-2.30;1.00
8527;DHT22;4301;48.362;8.478;2023-04-06T01:11:56;-2.20;9.70
8527;DHT22;4301;48.362;8.478;2023-04-06T01:14:24;-2.20;3.00
8527;DHT22;4301;48.362;8.478;2023-04-06T01:16:52;-2.20;15.20
8527;DHT22;4301;48.362;8.478;2023-04-06T01:19:19;-2.20;1.00
8527;DHT22;4301;48.362;8.478;2023-04-06T01:21:46;-2.40;1.00
8527;DHT22;4301;48.362;8.478;2023-04-06T01:24:16;-2.40;1.00
8527;DHT22;4301;48.362;8.478;2023-04-06T01:26:43;-2.50;1.00
8527;DHT22;4301;48.362;8.478;2023-04-06T01:29:10;-2.60;6.50
8527;DHT22;4301;48.362;8.478;2023-04-06T01:31:38;-2.50;20.50
8527;DHT22;4301;48.362;8.478;2023-04-06T01:34:05;-2.40;1.00
8527;DHT22;4301;48.362;8.478;2023-04-06T01:36:32;-2.40;1.00
8527;DHT22;4301;48.362;8.478;2023-04-06T01:38:59;-2.40;1.00
8527;DHT22;4301;48.362;8.478;2023-04-06T01:41:28;-2.40;1.00
8527;DHT22;4301;48.362;8.478;2023-04-06T01:43:55;-2.40;1.00
8527;DHT22;4301;48.362;8.478;2023-04-06T01:46:22;-2.50;1.00
8527;DHT22;4301;48.362;8.478;2023-04-06T01:48:49;-2.50;1.00
8527;DHT22;4301;48.362;8.478;2023-04-06T01:51:16;-2.60;1.00
8527;DHT22;4301;48.362;8.478;2023-04-06T01:53:43;-2.70;1.00
8527;DHT22;4301;48.362;8.478;2023-04-06T01:56:10;-2.70;1.00
8527;DHT22;4301;48.362;8.478;2023-04-06T01:58:38;-2.80;1.00
8527;DHT22;4301;48.362;8.478;2023-04-06T02:01:05;-2.70;1.00
8527;DHT22;4301;48.362;8.478;2023-04-06T02:03:32;-2.70;1.00
8527;DHT22;4301;48.362;8.478;2023-04-06T02:05:59;-2.70;1.00
8527;DHT22;4301;48.362;8.478;2023-04-06T02:08:27;-2.80;1.00
8527;DHT22;4301;48.362;8.478;2023-04-06T02:10:54;-2.90;1.00
8527;DHT22;4301;48.362;8.478;2023-04-06T02:13:21;-2.90;1.00
8527;DHT22;4301;48.362;8.478;2023-04-06T02:15:49;-2.90;7.20
8527;DHT22;4301;48.362;8.478;2023-04-06T02:18:16;-2.80;5.50
8527;DHT22;4301;48.362;8.478;2023-04-06T02:20:44;-2.70;1.00
8527;DHT22;4301;48.362;8.478;2023-04-06T02:23:11;-2.80;1.00
8527;DHT22;4301;48.362;8.478;2023-04-06T02:25:38;-2.90;1.00
8527;DHT22;4301;48.362;8.478;2023-04-06T02:28:05;-2.80;1.00
8527;DHT22;4301;48.362;8.478;2023-04-06T02:30:32;-3.00;1.00
8527;DHT22;4301;48.362;8.478;2023-04-06T02:33:01;-3.00;14.00
8527;DHT22;4301;48.362;8.478;2023-04-06T02:35:29;-3.00;1.00
8527;DHT22;4301;48.362;8.478;2023-04-06T02:37:57;-3.10;1.00
8527;DHT22;4301;48.362;8.478;2023-04-06T02:40:24;-3.10;1.00
8527;DHT22;4301;48.362;8.478;2023-04-06T02:42:51;-3.10;1.00
8527;DHT22;4301;48.362;8.478;2023-04-06T02:45:18;-3.10;1.00
8527;DHT22;4301;48.362;8.478;2023-04-06T02:47:45;-3.10;15.60
8527;DHT22;4301;48.362;8.478;2023-04-06T02:50:14;-3.10;16.70
8527;DHT22;4301;48.362;8.478;2023-04-06T02:52:41;-3.20;2.70
8527;DHT22;4301;48.362;8.478;2023-04-06T02:55:09;-3.20;1.00
8527;DHT22;4301;48.362;8.478;2023-04-06T02:57:36;-3.20;1.00
8527;DHT22;4301;48.362;8.478;2023-04-06T03:00:04;-3.20;1.90
8527;DHT22;4301;48.362;8.478;2023-04-06T03:02:31;-3.20;1.00
8527;DHT22;4301;48.362;8.478;2023-04-06T03:04:58;-3.20;1.00
8527;DHT22;4301;48.362;8.478;2023-04-06T03:07:26;-3.10;4.30
8527;DHT22;4301;48.362;8.478;2023-04-06T03:09:53;-3.20;16.00
8527;DHT22;4301;48.362;8.478;2023-04-06T03:12:20;-3.30;16.40
8527;DHT22;4301;48.362;8.478;2023-04-06T03:14:47;-3.30;16.70
8527;DHT22;4301;48.362;8.478;2023-04-06T03:17:14;-3.40;7.40
8527;DHT22;4301;48.362;8.478;2023-04-06T03:19:41;-3.40;1.00
8527;DHT22;4301;48.362;8.478;2023-04-06T03:22:08;-3.40;1.00
8527;DHT22;4301;48.362;8.478;2023-04-06T03:24:37;-3.30;17.80
8527;DHT22;4301;48.362;8.478;2023-04-06T03:27:04;-3.30;19.10
8527;DHT22;4301;48.362;8.478;2023-04-06T03:29:32;-3.30;8.80
8527;DHT22;4301;48.362;8.478;2023-04-06T03:31:59;-3.30;1.00
8527;DHT22;4301;48.362;8.478;2023-04-06T03:34:26;-3.50;3.20
8527;DHT22;4301;48.362;8.478;2023-04-06T03:36:53;-3.50;10.10
8527;DHT22;4301;48.362;8.478;2023-04-06T03:39:20;-3.50;8.10
8527;DHT22;4301;48.362;8.478;2023-04-06T03:41:48;-3.50;17.80
8527;DHT22;4301;48.362;8.478;2023-04-06T03:44:15;-3.50;26.20
8527;DHT22;4301;48.362;8.478;2023-04-06T03:46:42;-3.50;38.20
8527;DHT22;4301;48.362;8.478;2023-04-06T03:49:09;-3.50;48.70
8527;DHT22;4301;48.362;8.478;2023-04-06T03:51:36;-3.50;43.00
8527;DHT22;4301;48.362;8.478;2023-04-06T03:54:03;-3.50;59.30
8527;DHT22;4301;48.362;8.478;2023-04-06T03:56:30;-3.50;45.70
8527;DHT22;4301;48.362;8.478;2023-04-06T03:58:59;-3.60;42.50
8527;DHT22;4301;48.362;8.478;2023-04-06T04:01:27;-3.60;58.00
8527;DHT22;4301;48.362;8.478;2023-04-06T04:03:54;-3.60;71.60
8527;DHT22;4301;48.362;8.478;2023-04-06T04:06:21;-3.60;83.20
8527;DHT22;4301;48.362;8.478;2023-04-06T04:08:48;-3.60;80.70
8527;DHT22;4301;48.362;8.478;2023-04-06T04:11:15;-3.60;82.60
8527;DHT22;4301;48.362;8.478;2023-04-06T04:13:42;-3.60;82.90
8527;DHT22;4301;48.362;8.478;2023-04-06T04:16:11;-3.60;91.00
8527;DHT22;4301;48.362;8.478;2023-04-06T04:18:38;-3.50;90.20
8527;DHT22;4301;48.362;8.478;2023-04-06T04:21:05;-3.50;80.60
8527;DHT22;4301;48.362;8.478;2023-04-06T04:23:32;-3.60;70.20
8527;DHT22;4301;48.362;8.478;2023-04-06T04:25:59;-3.50;79.30
8527;DHT22;4301;48.362;8.478;2023-04-06T04:28:26;-3.50;59.70
8527;DHT22;4301;48.362;8.478;2023-04-06T04:30:53;-3.50;51.10
8527;DHT22;4301;48.362;8.478;2023-04-06T04:33:21;-3.60;53.60
8527;DHT22;4301;48.362;8.478;2023-04-06T04:35:48;-3.70;21.20
8527;DHT22;4301;48.362;8.478;2023-04-06T04:38:15;-3.80;19.20
8527;DHT22;4301;48.362;8.478;2023-04-06T04:40:43;-3.90;33.40
8527;DHT22;4301;48.362;8.478;2023-04-06T04:43:10;-4.00;24.60
8527;DHT22;4301;48.362;8.478;2023-04-06T04:45:37;-4.00;47.80
8527;DHT22;4301;48.362;8.478;2023-04-06T04:48:04;-4.00;64.10
8527;DHT22;4301;48.362;8.478;2023-04-06T04:50:33;-4.00;57.90
8527;DHT22;4301;48.362;8.478;2023-04-06T04:53:00;-4.00;63.20
8527;DHT22;4301;48.362;8.478;2023-04-06T04:55:27;-3.90;81.00
8527;DHT22;4301;48.362;8.478;2023-04-06T04:57:54;-3.90;60.90
8527;DHT22;4301;48.362;8.478;2023-04-06T05:00:22;-3.90;66.50
8527;DHT22;4301;48.362;8.478;2023-04-06T05:02:49;-3.90;46.40
8527;DHT22;4301;48.362;8.478;2023-04-06T05:05:16;-3.90;70.10
8527;DHT22;4301;48.362;8.478;2023-04-06T05:07:44;-3.90;66.00
8527;DHT22;4301;48.362;8.478;2023-04-06T05:10:11;-3.80;78.90
8527;DHT22;4301;48.362;8.478;2023-04-06T05:12:38;-3.70;83.70
8527;DHT22;4301;48.362;8.478;2023-04-06T05:15:07;-3.70;73.00
8527;DHT22;4301;48.362;8.478;2023-04-06T05:17:35;-3.80;42.10
8527;DHT22;4301;48.362;8.478;2023-04-06T05:20:02;-3.80;43.30
8527;DHT22;4301;48.362;8.478;2023-04-06T05:22:29;-3.80;37.40
8527;DHT22;4301;48.362;8.478;2023-04-06T05:24:58;-3.80;37.10
8527;DHT22;4301;48.362;8.478;2023-04-06T05:27:25;-3.80;35.10
8527;DHT22;4301;48.362;8.478;2023-04-06T05:29:52;-3.70;36.70
8527;DHT22;4301;48.362;8.478;2023-04-06T05:32:19;-3.60;43.80
8527;DHT22;4301;48.362;8.478;2023-04-06T05:34:48;-3.70;36.10
8527;DHT22;4301;48.362;8.478;2023-04-06T05:37:15;-3.60;27.20
8527;DHT22;4301;48.362;8.478;2023-04-06T05:39:42;-3.60;25.80
8527;DHT22;4301;48.362;8.478;2023-04-06T05:42:10;-3.60;38.80
8527;DHT22;4301;48.362;8.478;2023-04-06T05:44:38;-3.50;39.20
8527;DHT22;4301;48.362;8.478;2023-04-06T05:47:05;-3.50;37.80
8527;DHT22;4301;48.362;8.478;2023-04-06T05:49:32;-3.30;60.90
8527;DHT22;4301;48.362;8.478;2023-04-06T05:51:59;-3.30;52.50
8527;DHT22;4301;48.362;8.478;2023-04-06T05:54:26;-3.20;45.20
8527;DHT22;4301;48.362;8.478;2023-04-06T05:56:53;-3.20;39.60
8527;DHT22;4301;48.362;8.478;2023-04-06T05:59:21;-3.10;34.30
8527;DHT22;4301;48.362;8.478;2023-04-06T06:01:49;-3.00;54.70
8527;DHT22;4301;48.362;8.478;2023-04-06T06:04:16;-2.90;38.60
8527;DHT22;4301;48.362;8.478;2023-04-06T06:06:43;-2.70;25.50
8527;DHT22;4301;48.362;8.478;2023-04-06T06:09:10;-2.60;11.20
8527;DHT22;4301;48.362;8.478;2023-04-06T06:11:37;-2.50;8.90
8527;DHT22;4301;48.362;8.478;2023-04-06T06:14:04;-2.40;1.00
8527;DHT22;4301;48.362;8.478;2023-04-06T06:16:32;-2.30;1.00
8527;DHT22;4301;48.362;8.478;2023-04-06T06:18:59;-2.20;1.00
8527;DHT22;4301;48.362;8.478;2023-04-06T06:21:26;-2.10;1.00
8527;DHT22;4301;48.362;8.478;2023-04-06T06:23:53;-1.90;1.00
8527;DHT22;4301;48.362;8.478;2023-04-06T06:26:20;-1.80;1.00
8527;DHT22;4301;48.362;8.478;2023-04-06T06:28:48;-1.70;1.00
8527;DHT22;4301;48.362;8.478;2023-04-06T06:31:15;-1.50;1.00
8527;DHT22;4301;48.362;8.478;2023-04-06T06:33:45;-1.40;1.00
8527;DHT22;4301;48.362;8.478;2023-04-06T06:36:15;-1.30;1.00
8527;DHT22;4301;48.362;8.478;2023-04-06T06:38:42;-1.10;1.00
8527;DHT22;4301;48.362;8.478;2023-04-06T06:41:10;-0.90;1.00
8527;DHT22;4301;48.362;8.478;2023-04-06T06:43:37;-0.90;1.00
8527;DHT22;4301;48.362;8.478;2023-04-06T06:46:04;-0.70;1.00
8527;DHT22;4301;48.362;8.478;2023-04-06T06:48:32;-0.50;1.00
8527;DHT22;4301;48.362;8.478;2023-04-06T06:51:00;-0.30;1.00
8527;DHT22;4301;48.362;8.478;2023-04-06T06:53:28;-0.10;1.00
8527;DHT22;4301;48.362;8.478;2023-04-06T06:55:55;0.00;1.00
8527;DHT22;4301;48.362;8.478;2023-04-06T06:58:22;0.20;1.00
8527;DHT22;4301;48.362;8.478;2023-04-06T07:00:49;0.40;1.00
8527;DHT22;4301;48.362;8.478;2023-04-06T07:03:16;0.60;99.90
8527;DHT22;4301;48.362;8.478;2023-04-06T07:05:45;0.70;99.90
8527;DHT22;4301;48.362;8.478;2023-04-06T07:08:19;1.00;99.90
8527;DHT22;4301;48.362;8.478;2023-04-06T07:10:46;1.10;38.00
8527;DHT22;4301;48.362;8.478;2023-04-06T07:13:13;1.40;99.90
8527;DHT22;4301;48.362;8.478;2023-04-06T07:15:44;1.60;1.00
8527;DHT22;4301;48.362;8.478;2023-04-06T07:18:11;1.90;99.90
8527;DHT22;4301;48.362;8.478;2023-04-06T07:20:38;2.10;1.00
8527;DHT22;4301;48.362;8.478;2023-04-06T07:23:06;2.40;1.00
8527;DHT22;4301;48.362;8.478;2023-04-06T07:25:34;2.70;1.00
8527;DHT22;4301;48.362;8.478;2023-04-06T07:28:01;3.10;1.00
8527;DHT22;4301;48.362;8.478;2023-04-06T07:30:29;3.60;1.00
8527;DHT22;4301;48.362;8.478;2023-04-06T07:32:56;3.80;1.00
8527;DHT22;4301;48.362;8.478;2023-04-06T07:35:26;4.00;99.90
8527;DHT22;4301;48.362;8.478;2023-04-06T07:37:53;4.30;99.90
8527;DHT22;4301;48.362;8.478;2023-04-06T07:40:20;4.60;1.00
8527;DHT22;4301;48.362;8.478;2023-04-06T07:42:49;4.90;99.90
8527;DHT22;4301;48.362;8.478;2023-04-06T07:45:16;5.10;1.00
8527;DHT22;4301;48.362;8.478;2023-04-06T07:47:43;5.50;99.90
8527;DHT22;4301;48.362;8.478;2023-04-06T07:50:10;5.90;99.90
8527;DHT22;4301;48.362;8.478;2023-04-06T07:52:38;6.30;99.90
8527;DHT22;4301;48.362;8.478;2023-04-06T07:55:05;6.40;1.00
8527;DHT22;4301;48.362;8.478;2023-04-06T07:57:32;6.80;1.00
8527;DHT22;4301;48.362;8.478;2023-04-06T08:00:01;7.00;1.00
8527;DHT22;4301;48.362;8.478;2023-04-06T08:02:29;7.20;1.00
8527;DHT22;4301;48.362;8.478;2023-04-06T08:04:57;7.50;1.00
8527;DHT22;4301;48.362;8.478;2023-04-06T08:07:24;7.60;1.00
8527;DHT22;4301;48.362;8.478;2023-04-06T08:09:52;7.70;99.90
8527;DHT22;4301;48.362;8.478;2023-04-06T08:12:19;7.80;99.90
8527;DHT22;4301;48.362;8.478;2023-04-06T08:14:46;8.00;99.90
8527;DHT22;4301;48.362;8.478;2023-04-06T08:17:14;8.30;99.90
8527;DHT22;4301;48.362;8.478;2023-04-06T08:19:42;8.40;99.90
8527;DHT22;4301;48.362;8.478;2023-04-06T08:22:10;8.60;99.90
8527;DHT22;4301;48.362;8.478;2023-04-06T08:24:37;8.60;99.90
8527;DHT22;4301;48.362;8.478;2023-04-06T08:27:04;8.90;99.90
8527;DHT22;4301;48.362;8.478;2023-04-06T08:29:31;9.20;99.90
8527;DHT22;4301;48.362;8.478;2023-04-06T08:31:58;9.60;92.50
8527;DHT22;4301;48.362;8.478;2023-04-06T08:34:26;10.00;70.50
8527;DHT22;4301;48.362;8.478;2023-04-06T08:36:53;9.90;39.60
8527;DHT22;4301;48.362;8.478;2023-04-06T08:39:20;10.20;33.80
8527;DHT22;4301;48.362;8.478;2023-04-06T08:41:51;10.30;18.40
8527;DHT22;4301;48.362;8.478;2023-04-06T08:44:18;10.70;1.00
8527;DHT22;4301;48.362;8.478;2023-04-06T08:46:46;11.00;1.00
8527;DHT22;4301;48.362;8.478;2023-04-06T08:49:14;10.90;1.00
8527;DHT22;4301;48.362;8.478;2023-04-06T08:51:44;11.30;1.00
8527;DHT22;4301;48.362;8.478;2023-04-06T08:54:11;11.40;1.00
8527;DHT22;4301;48.362;8.478;2023-04-06T08:56:39;11.30;1.00
8527;DHT22;4301;48.362;8.478;2023-04-06T08:59:06;11.70;1.00
8527;DHT22;4301;48.362;8.478;2023-04-06T09:01:36;12.10;1.00
8527;DHT22;4301;48.362;8.478;2023-04-06T09:04:07;12.50;1.00
8527;DHT22;4301;48.362;8.478;2023-04-06T09:06:36;13.40;1.00
8527;DHT22;4301;48.362;8.478;2023-04-06T09:09:05;13.60;1.00
8527;DHT22;4301;48.362;8.478;2023-04-06T09:11:42;13.80;1.00
8527;DHT22;4301;48.362;8.478;2023-04-06T09:14:09;14.30;1.00
8527;DHT22;4301;48.362;8.478;2023-04-06T09:16:39;15.00;1.00
8527;DHT22;4301;48.362;8.478;2023-04-06T09:19:07;15.00;1.00
8527;DHT22;4301;48.362;8.478;2023-04-06T09:21:34;15.00;1.00
8527;DHT22;4301;48.362;8.478;2023-04-06T09:24:02;14.70;1.00
8527;DHT22;4301;48.362;8.478;2023-04-06T09:26:30;14.40;1.00
8527;DHT22;4301;48.362;8.478;2023-04-06T09:28:59;14.50;1.00
8527;DHT22;4301;48.362;8.478;2023-04-06T09:31:30;14.50;1.00
8527;DHT22;4301;48.362;8.478;2023-04-06T09:33:59;13.80;1.00
8527;DHT22;4301;48.362;8.478;2023-04-06T09:36:30;14.80;1.00
8527;DHT22;4301;48.362;8.478;2023-04-06T09:39:00;15.10;1.00
8527;DHT22;4301;48.362;8.478;2023-04-06T09:41:30;15.40;1.00
8527;DHT22;4301;48.362;8.478;2023-04-06T09:44:05;15.40;1.00
8527;DHT22;4301;48.362;8.478;2023-04-06T09:46:33;16.40;1.00
8527;DHT22;4301;48.362;8.478;2023-04-06T09:49:02;16.90;1.00
8527;DHT22;4301;48.362;8.478;2023-04-06T09:51:31;16.80;1.00
8527;DHT22;4301;48.362;8.478;2023-04-06T09:53:59;16.20;1.00
8527;DHT22;4301;48.362;8.478;2023-04-06T09:56:33;16.90;1.00
8527;DHT22;4301;48.362;8.478;2023-04-06T09:59:09;17.20;1.00
8527;DHT22;4301;48.362;8.478;2023-04-06T10:01:39;17.20;1.00
8527;DHT22;4301;48.362;8.478;2023-04-06T10:04:14;17.10;1.00
8527;DHT22;4301;48.362;8.478;2023-04-06T10:06:46;17.80;1.00
8527;DHT22;4301;48.362;8.478;2023-04-06T10:09:18;18.00;1.00
8527;DHT22;4301;48.362;8.478;2023-04-06T10:11:47;17.80;1.00
8527;DHT22;4301;48.362;8.478;2023-04-06T10:14:16;18.20;1.00
8527;DHT22;4301;48.362;8.478;2023-04-06T10:16:43;18.00;1.00
8527;DHT22;4301;48.362;8.478;2023-04-06T10:19:13;18.20;1.00
8527;DHT22;4301;48.362;8.478;2023-04-06T10:21:44;18.70;1.00
8527;DHT22;4301;48.362;8.478;2023-04-06T10:24:14;18.40;1.00
8527;DHT22;4301;48.362;8.478;2023-04-06T10:26:42;18.40;1.00
8527;DHT22;4301;48.362;8.478;2023-04-06T10:29:11;17.90;1.00
8527;DHT22;4301;48.362;8.478;2023-04-06T10:31:42;18.60;1.00
8527;DHT22;4301;48.362;8.478;2023-04-06T10:34:10;19.10;1.00
8527;DHT22;4301;48.362;8.478;2023-04-06T10:36:37;19.50;1.00
8527;DHT22;4301;48.362;8.478;2023-04-06T10:39:05;19.20;1.00
8527;DHT22;4301;48.362;8.478;2023-04-06T10:41:33;20.00;1.00
8527;DHT22;4301;48.362;8.478;2023-04-06T10:44:00;19.60;1.00
8527;DHT22;4301;48.362;8.478;2023-04-06T10:46:30;19.20;1.00
8527;DHT22;4301;48.362;8.478;2023-04-06T10:48:58;18.40;1.00
8527;DHT22;4301;48.362;8.478;2023-04-06T10:51:38;18.50;1.00
8527;DHT22;4301;48.362;8.478;2023-04-06T10:54:06;18.80;1.00
8527;DHT22;4301;48.362;8.478;2023-04-06T10:56:36;19.10;1.00
8527;DHT22;4301;48.362;8.478;2023-04-06T10:59:05;20.20;1.00
8527;DHT22;4301;48.362;8.478;2023-04-06T11:01:34;19.90;1.00
8527;DHT22;4301;48.362;8.478;2023-04-06T11:04:01;19.80;1.00
8527;DHT22;4301;48.362;8.478;2023-04-06T11:06:30;18.80;1.00
8527;DHT22;4301;48.362;8.478;2023-04-06T11:08:58;18.70;1.00
8527;DHT22;4301;48.362;8.478;2023-04-06T11:11:26;18.50;1.00
8527;DHT22;4301;48.362;8.478;2023-04-06T11:13:55;18.50;1.00
8527;DHT22;4301;48.362;8.478;2023-04-06T11:16:23;19.30;1.00
8527;DHT22;4301;48.362;8.478;2023-04-06T11:18:53;19.30;1.00
8527;DHT22;4301;48.362;8.478;2023-04-06T11:21:32;20.00;1.00
8527;DHT22;4301;48.362;8.478;2023-04-06T11:24:07;19.30;1.00
8527;DHT22;4301;48.362;8.478;2023-04-06T11:26:37;19.30;1.00
8527;DHT22;4301;48.362;8.478;2023-04-06T11:29:05;20.00;1.00
8527;DHT22;4301;48.362;8.478;2023-04-06T11:31:39;20.10;1.00
8527;DHT22;4301;48.362;8.478;2023-04-06T11:34:13;19.10;1.00
8527;DHT22;4301;48.362;8.478;2023-04-06T11:36:43;18.50;1.00
8527;DHT22;4301;48.362;8.478;2023-04-06T11:39:11;19.60;1.00
8527;DHT22;4301;48.362;8.478;2023-04-06T11:41:38;19.20;1.00
8527;DHT22;4301;48.362;8.478;2023-04-06T11:44:06;19.20;1.00
8527;DHT22;4301;48.362;8.478;2023-04-06T11:46:33;19.00;1.00
8527;DHT22;4301;48.362;8.478;2023-04-06T11:49:01;18.80;1.00
8527;DHT22;4301;48.362;8.478;2023-04-06T11:51:30;18.40;1.00
8527;DHT22;4301;48.362;8.478;2023-04-06T11:53:57;18.80;1.00
8527;DHT22;4301;48.362;8.478;2023-04-06T11:56:25;18.80;1.00
8527;DHT22;4301;48.362;8.478;2023-04-06T11:58:54;18.30;1.00
8527;DHT22;4301;48.362;8.478;2023-04-06T12:01:21;18.40;1.00
8527;DHT22;4301;48.362;8.478;2023-04-06T12:03:48;19.10;1.00
8527;DHT22;4301;48.362;8.478;2023-04-06T12:06:15;19.40;1.00
8527;DHT22;4301;48.362;8.478;2023-04-06T12:08:43;18.70;1.00
8527;DHT22;4301;48.362;8.478;2023-04-06T12:11:11;19.20;1.00
8527;DHT22;4301;48.362;8.478;2023-04-06T12:13:38;19.80;1.00
8527;DHT22;4301;48.362;8.478;2023-04-06T12:16:05;20.20;1.00
8527;DHT22;4301;48.362;8.478;2023-04-06T12:18:32;18.80;1.00
8527;DHT22;4301;48.362;8.478;2023-04-06T12:21:00;19.00;1.00
8527;DHT22;4301;48.362;8.478;2023-04-06T12:23:27;18.70;1.00
8527;DHT22;4301;48.362;8.478;2023-04-06T12:25:55;18.50;1.00
8527;DHT22;4301;48.362;8.478;2023-04-06T12:28:22;19.00;1.00
8527;DHT22;4301;48.362;8.478;2023-04-06T12:30:52;19.30;1.00
8527;DHT22;4301;48.362;8.478;2023-04-06T12:33:20;19.20;1.00
8527;DHT22;4301;48.362;8.478;2023-04-06T12:35:47;19.00;1.00
8527;DHT22;4301;48.362;8.478;2023-04-06T12:38:15;18.90;1.00
8527;DHT22;4301;48.362;8.478;2023-04-06T12:40:42;18.30;1.00
8527;DHT22;4301;48.362;8.478;2023-04-06T12:43:11;18.20;1.00
8527;DHT22;4301;48.362;8.478;2023-04-06T12:45:39;18.20;1.00
8527;DHT22;4301;48.362;8.478;2023-04-06T12:48:07;18.20;1.00
8527;DHT22;4301;48.362;8.478;2023-04-06T12:50:34;17.90;1.00
8527;DHT22;4301;48.362;8.478;2023-04-06T12:53:01;18.20;1.00
8527;DHT22;4301;48.362;8.478;2023-04-06T12:55:30;18.80;1.00
8527;DHT22;4301;48.362;8.478;2023-04-06T12:57:59;18.40;1.00
8527;DHT22;4301;48.362;8.478;2023-04-06T13:00:28;17.70;1.00
8527;DHT22;4301;48.362;8.478;2023-04-06T13:02:56;18.00;1.00
8527;DHT22;4301;48.362;8.478;2023-04-06T13:05:23;18.10;1.00
8527;DHT22;4301;48.362;8.478;2023-04-06T13:07:50;18.50;1.00
8527;DHT22;4301;48.362;8.478;2023-04-06T13:10:17;18.50;1.00
8527;DHT22;4301;48.362;8.478;2023-04-06T13:12:44;19.00;1.00
8527;DHT22;4301;48.362;8.478;2023-04-06T13:15:11;18.80;1.00
8527;DHT22;4301;48.362;8.478;2023-04-06T13:17:39;19.20;1.00
8527;DHT22;4301;48.362;8.478;2023-04-06T13:20:07;19.30;1.00
8527;DHT22;4301;48.362;8.478;2023-04-06T13:22:34;19.20;1.00
8527;DHT22;4301;48.362;8.478;2023-04-06T13:25:02;19.20;1.00
8527;DHT22;4301;48.362;8.478;2023-04-06T13:27:29;18.40;1.00
8527;DHT22;4301;48.362;8.478;2023-04-06T13:29:59;18.60;1.00
8527;DHT22;4301;48.362;8.478;2023-04-06T13:32:26;18.60;1.00
8527;DHT22;4301;48.362;8.478;2023-04-06T13:34:56;18.90;1.00
8527;DHT22;4301;48.362;8.478;2023-04-06T13:37:23;19.10;1.00
8527;DHT22;4301;48.362;8.478;2023-04-06T13:39:50;18.40;1.00
8527;DHT22;4301;48.362;8.478;2023-04-06T13:42:17;18.30;1.00
8527;DHT22;4301;48.362;8.478;2023-04-06T13:44:44;18.40;1.00
8527;DHT22;4301;48.362;8.478;2023-04-06T13:47:12;18.10;1.00
8527;DHT22;4301;48.362;8.478;2023-04-06T13:49:40;18.20;1.00
8527;DHT22;4301;48.362;8.478;2023-04-06T13:52:09;18.10;1.00
8527;DHT22;4301;48.362;8.478;2023-04-06T13:54:36;18.10;1.00
8527;DHT22;4301;48.362;8.478;2023-04-06T13:57:03;17.90;1.00
8527;DHT22;4301;48.362;8.478;2023-04-06T13:59:33;17.20;1.00
8527;DHT22;4301;48.362;8.478;2023-04-06T14:02:01;17.30;1.00
8527;DHT22;4301;48.362;8.478;2023-04-06T14:04:28;16.60;1.00
8527;DHT22;4301;48.362;8.478;2023-04-06T14:06:55;16.80;1.00
8527;DHT22;4301;48.362;8.478;2023-04-06T14:09:24;16.80;1.00
8527;DHT22;4301;48.362;8.478;2023-04-06T14:11:51;16.80;1.00
8527;DHT22;4301;48.362;8.478;2023-04-06T14:14:18;16.80;1.00
8527;DHT22;4301;48.362;8.478;2023-04-06T14:16:46;16.70;1.00
8527;DHT22;4301;48.362;8.478;2023-04-06T14:19:15;16.20;1.00
8527;DHT22;4301;48.362;8.478;2023-04-06T14:21:43;16.60;1.00
8527;DHT22;4301;48.362;8.478;2023-04-06T14:24:10;16.50;1.00
8527;DHT22;4301;48.362;8.478;2023-04-06T14:26:39;16.30;1.00
8527;DHT22;4301;48.362;8.478;2023-04-06T14:29:07;15.70;1.00
8527;DHT22;4301;48.362;8.478;2023-04-06T14:31:34;15.20;1.00
8527;DHT22;4301;48.362;8.478;2023-04-06T14:34:02;15.40;1.00
8527;DHT22;4301;48.362;8.478;2023-04-06T14:36:30;16.00;1.00
8527;DHT22;4301;48.362;8.478;2023-04-06T14:39:02;15.40;1.00
8527;DHT22;4301;48.362;8.478;2023-04-06T14:41:30;15.30;1.00
8527;DHT22;4301;48.362;8.478;2023-04-06T14:43:59;15.10;1.00
8527;DHT22;4301;48.362;8.478;2023-04-06T14:46:26;15.30;1.00
8527;DHT22;4301;48.362;8.478;2023-04-06T14:48:54;15.20;1.00
8527;DHT22;4301;48.362;8.478;2023-04-06T14:51:21;15.10;1.00
8527;DHT22;4301;48.362;8.478;2023-04-06T14:53:48;15.20;1.00
8527;DHT22;4301;48.362;8.478;2023-04-06T14:56:19;14.70;1.00
8527;DHT22;4301;48.362;8.478;2023-04-06T14:58:46;14.60;1.00
8527;DHT22;4301;48.362;8.478;2023-04-06T15:01:15;14.40;1.00
8527;DHT22;4301;48.362;8.478;2023-04-06T15:03:42;14.20;1.00
8527;DHT22;4301;48.362;8.478;2023-04-06T15:06:12;14.10;1.00
8527;DHT22;4301;48.362;8.478;2023-04-06T15:08:41;14.00;1.00
8527;DHT22;4301;48.362;8.478;2023-04-06T15:11:08;13.90;1.00
8527;DHT22;4301;48.362;8.478;2023-04-06T15:13:35;13.60;1.00
8527;DHT22;4301;48.362;8.478;2023-04-06T15:16:02;13.40;1.00
8527;DHT22;4301;48.362;8.478;2023-04-06T15:18:31;13.40;1.00
8527;DHT22;4301;48.362;8.478;2023-04-06T15:20:58;13.20;1.00
8527;DHT22;4301;48.362;8.478;2023-04-06T15:23:25;12.90;1.00
8527;DHT22;4301;48.362;8.478;2023-04-06T15:25:55;13.00;1.00
8527;DHT22;4301;48.362;8.478;2023-04-06T15:28:21;12.90;1.00
8527;DHT22;4301;48.362;8.478;2023-04-06T15:30:48;12.70;1.00
8527;DHT22;4301;48.362;8.478;2023-04-06T15:33:15;12.80;1.00
8527;DHT22;4301;48.362;8.478;2023-04-06T15:35:46;12.60;1.00
8527;DHT22;4301;48.362;8.478;2023-04-06T15:38:13;12.40;1.00
8527;DHT22;4301;48.362;8.478;2023-04-06T15:40:43;12.40;1.00
8527;DHT22;4301;48.362;8.478;2023-04-06T15:43:10;12.20;1.00
8527;DHT22;4301;48.362;8.478;2023-04-06T15:45:37;12.00;1.00
8527;DHT22;4301;48.362;8.478;2023-04-06T15:48:04;11.90;1.00
8527;DHT22;4301;48.362;8.478;2023-04-06T15:50:31;11.80;1.00
8527;DHT22;4301;48.362;8.478;2023-04-06T15:53:00;11.70;1.00
8527;DHT22;4301;48.362;8.478;2023-04-06T15:55:27;11.40;1.00
8527;DHT22;4301;48.362;8.478;2023-04-06T15:57:54;11.60;1.00
8527;DHT22;4301;48.362;8.478;2023-04-06T16:00:21;11.50;1.00
8527;DHT22;4301;48.362;8.478;2023-04-06T16:02:49;11.70;1.00
8527;DHT22;4301;48.362;8.478;2023-04-06T16:05:16;11.50;1.00
8527;DHT22;4301;48.362;8.478;2023-04-06T16:07:43;11.40;1.00
8527;DHT22;4301;48.362;8.478;2023-04-06T16:10:11;11.30;1.00
8527;DHT22;4301;48.362;8.478;2023-04-06T16:12:38;11.20;1.00
8527;DHT22;4301;48.362;8.478;2023-04-06T16:15:07;11.30;1.00
8527;DHT22;4301;48.362;8.478;2023-04-06T16:17:35;11.20;1.00